sensor_id;sensor_type;location;lat;lon;timestamp;pressure;altitude;pressure_sealevel;temperature;humidity
49947;BME280;35839;48.662;13.300;2024-03-06T05:02:00;97337.66;;;5.72;100.00
49947;BME280;35839;48.662;13.300;2024-03-06T05:04:28;97340.38;;;5.59;100.00
49947;BME280;35839;48.662;13.300;2024-03-06T05:06:53;97345.06;;;5.77;100.00
49947;BME280;35839;48.662;13.300;2024-03-06T05:09:19;97344.22;;;5.99;100.00
49947;BME280;35839;48.662;13.300;2024-03-06T05:11:44;97347.59;;;5.56;100.00
49947;BME280;35839;48.662;13.300;2024-03-06T05:14:09;97343.09;;;5.69;100.00
49947;BME280;35839;48.662;13.300;2024-03-06T05:16:35;97354.31;;;5.69;100.00
49947;BME280;35839;48.662;13.300;2024-03-06T05:19:00;97353.06;;;6.07;100.00
49947;BME280;35839;48.662;13.300;2024-03-06T05:21:26;97346.34;;;5.94;100.00
49947;BME280;35839;48.662;13.300;2024-03-06T05:23:52;97352.16;;;5.97;100.00
49947;BME280;35839;48.662;13.300;2024-03-06T05:26:17;97348.41;;;6.22;100.00
49947;BME280;35839;48.662;13.300;2024-03-06T05:28:43;97351.06;;;6.11;100.00
49947;BME280;35839;48.662;13.300;2024-03-06T05:31:18;97348.66;;;6.19;100.00
49947;BME280;35839;48.662;13.300;2024-03-06T05:33:48;97355.84;;;6.27;100.00
49947;BME280;35839;48.662;13.300;2024-03-06T05:36:14;97360.16;;;6.05;100.00
49947;BME280;35839;48.662;13.300;2024-03-06T05:38:40;97359.53;;;6.45;100.00
49947;BME280;35839;48.662;13.300;2024-03-06T05:41:06;97361.66;;;6.19;100.00
49947;BME280;35839;48.662;13.300;2024-03-06T05:43:31;97363.47;;;6.07;100.00
49947;BME280;35839;48.662;13.300;2024-03-06T05:45:57;97363.84;;;6.35;100.00
49947;BME280;35839;48.662;13.300;2024-03-06T05:48:22;97356.97;;;6.13;100.00
49947;BME280;35839;48.662;13.300;2024-03-06T05:50:49;97362.06;;;6.36;100.00
49947;BME280;35839;48.662;13.300;2024-03-06T05:53:14;97362.28;;;6.44;100.00
49947;BME280;35839;48.662;13.300;2024-03-06T05:55:39;97360.78;;;6.62;100.00
49947;BME280;35839;48.662;13.300;2024-03-06T05:58:05;97362.50;;;6.73;100.00
49947;BME280;35839;48.662;13.300;2024-03-06T06:00:31;97363.88;;;6.56;100.00
49947;BME280;35839;48.662;13.300;2024-03-06T06:02:56;97363.63;;;6.80;100.00
49947;BME280;35839;48.662;13.300;2024-03-06T06:05:21;97371.31;;;7.03;100.00
49947;BME280;35839;48.662;13.300;2024-03-06T06:07:48;97370.69;;;7.10;100.00
49947;BME280;35839;48.662;13.300;2024-03-06T06:10:14;97373.91;;;7.24;100.00
49947;BME280;35839;48.662;13.300;2024-03-06T06:12:40;97378.84;;;7.27;100.00
49947;BME280;35839;48.662;13.300;2024-03-06T06:15:07;97374.88;;;7.23;100.00
49947;BME280;35839;48.662;13.300;2024-03-06T06:17:33;97390.63;;;7.00;100.00
49947;BME280;35839;48.662;13.300;2024-03-06T06:19:59;97391.38;;;7.12;100.00
49947;BME280;35839;48.662;13.300;2024-03-06T06:22:27;97392.41;;;7.21;100.00
49947;BME280;35839;48.662;13.300;2024-03-06T06:24:52;97392.84;;;7.26;100.00
49947;BME280;35839;48.662;13.300;2024-03-06T06:27:20;97394.63;;;7.56;100.00
49947;BME280;35839;48.662;13.300;2024-03-06T06:29:45;97405.84;;;7.47;100.00
49947;BME280;35839;48.662;13.300;2024-03-06T06:32:11;97402.56;;;7.54;100.00
49947;BME280;35839;48.662;13.300;2024-03-06T06:34:36;97405.47;;;7.30;100.00
49947;BME280;35839;48.662;13.300;2024-03-06T06:37:01;97401.50;;;7.36;100.00
49947;BME280;35839;48.662;13.300;2024-03-06T06:39:27;97401.47;;;7.57;100.00
49947;BME280;35839;48.662;13.300;2024-03-06T06:41:53;97409.69;;;7.52;100.00
49947;BME280;35839;48.662;13.300;2024-03-06T06:44:18;97413.91;;;7.74;100.00
49947;BME280;35839;48.662;13.300;2024-03-06T06:46:43;97412.03;;;7.86;100.00
49947;BME280;35839;48.662;13.300;2024-03-06T06:49:09;97415.22;;;7.59;100.00
49947;BME280;35839;48.662;13.300;2024-03-06T06:51:34;97422.28;;;7.47;100.00
49947;BME280;35839;48.662;13.300;2024-03-06T06:54:00;97417.94;;;7.88;100.00
49947;BME280;35839;48.662;13.300;2024-03-06T06:56:25;97420.78;;;7.85;100.00
49947;BME280;35839;48.662;13.300;2024-03-06T06:58:51;97416.88;;;8.00;100.00
49947;BME280;35839;48.662;13.300;2024-03-06T07:01:16;97419.06;;;7.95;100.00
49947;BME280;35839;48.662;13.300;2024-03-06T07:03:42;97417.31;;;8.25;100.00
49947;BME280;35839;48.662;13.300;2024-03-06T07:06:07;97428.03;;;8.22;100.00
49947;BME280;35839;48.662;13.300;2024-03-06T07:08:33;97427.44;;;8.09;100.00
49947;BME280;35839;48.662;13.300;2024-03-06T07:10:58;97426.22;;;8.13;100.00
49947;BME280;35839;48.662;13.300;2024-03-06T07:13:24;97423.47;;;7.95;100.00
49947;BME280;35839;48.662;13.300;2024-03-06T07:15:49;97432.13;;;8.05;100.00
49947;BME280;35839;48.662;13.300;2024-03-06T07:18:14;97432.66;;;8.09;100.00
49947;BME280;35839;48.662;13.300;2024-03-06T07:20:40;97436.72;;;7.92;100.00
49947;BME280;35839;48.662;13.300;2024-03-06T07:23:06;97436.44;;;7.85;100.00
49947;BME280;35839;48.662;13.300;2024-03-06T07:25:31;97437.81;;;7.89;100.00
49947;BME280;35839;48.662;13.300;2024-03-06T07:27:57;97448.47;;;8.07;100.00
49947;BME280;35839;48.662;13.300;2024-03-06T07:30:22;97448.88;;;8.12;100.00
49947;BME280;35839;48.662;13.300;2024-03-06T07:32:48;97448.09;;;8.31;100.00
49947;BME280;35839;48.662;13.300;2024-03-06T07:35:13;97444.81;;;8.39;100.00
49947;BME280;35839;48.662;13.300;2024-03-06T07:37:39;97445.13;;;8.46;100.00
49947;BME280;35839;48.662;13.300;2024-03-06T07:40:06;97454.09;;;8.12;100.00
49947;BME280;35839;48.662;13.300;2024-03-06T07:42:32;97442.59;;;8.34;100.00
49947;BME280;35839;48.662;13.300;2024-03-06T07:44:58;97455.31;;;8.49;100.00
49947;BME280;35839;48.662;13.300;2024-03-06T07:47:24;97464.69;;;8.61;100.00
49947;BME280;35839;48.662;13.300;2024-03-06T07:49:49;97469.25;;;8.28;100.00
49947;BME280;35839;48.662;13.300;2024-03-06T07:52:15;97473.66;;;8.28;100.00
49947;BME280;35839;48.662;13.300;2024-03-06T07:54:41;97474.84;;;8.64;100.00
49947;BME280;35839;48.662;13.300;2024-03-06T07:57:06;97476.78;;;9.30;100.00
49947;BME280;35839;48.662;13.300;2024-03-06T07:59:31;97472.13;;;9.14;100.00
49947;BME280;35839;48.662;13.300;2024-03-06T08:01:57;97474.72;;;9.04;100.00
49947;BME280;35839;48.662;13.300;2024-03-06T08:04:22;97473.75;;;9.05;100.00
49947;BME280;35839;48.662;13.300;2024-03-06T08:06:48;97471.19;;;9.62;100.00
49947;BME280;35839;48.662;13.300;2024-03-06T08:09:14;97475.75;;;9.50;100.00
49947;BME280;35839;48.662;13.300;2024-03-06T08:11:41;97467.84;;;9.80;100.00
49947;BME280;35839;48.662;13.300;2024-03-06T08:14:07;97472.00;;;10.10;100.00
49947;BME280;35839;48.662;13.300;2024-03-06T08:16:33;97482.47;;;10.10;100.00
49947;BME280;35839;48.662;13.300;2024-03-06T08:19:00;97478.34;;;10.07;100.00
49947;BME280;35839;48.662;13.300;2024-03-06T08:21:26;97482.16;;;9.76;100.00
49947;BME280;35839;48.662;13.300;2024-03-06T08:23:51;97477.25;;;9.53;100.00
49947;BME280;35839;48.662;13.300;2024-03-06T08:26:16;97489.44;;;10.29;100.00
49947;BME280;35839;48.662;13.300;2024-03-06T08:28:42;97481.06;;;10.43;100.00
49947;BME280;35839;48.662;13.300;2024-03-06T08:31:07;97486.91;;;10.27;100.00
49947;BME280;35839;48.662;13.300;2024-03-06T08:33:33;97489.75;;;10.44;100.00
49947;BME280;35839;48.662;13.300;2024-03-06T08:35:59;97474.19;;;10.70;100.00
49947;BME280;35839;48.662;13.300;2024-03-06T08:38:25;97482.84;;;10.70;100.00
49947;BME280;35839;48.662;13.300;2024-03-06T08:40:50;97459.34;;;10.79;100.00
49947;BME280;35839;48.662;13.300;2024-03-06T08:43:16;97491.75;;;10.95;100.00
49947;BME280;35839;48.662;13.300;2024-03-06T08:45:42;97494.66;;;10.29;100.00
49947;BME280;35839;48.662;13.300;2024-03-06T08:48:07;97498.06;;;11.03;100.00
49947;BME280;35839;48.662;13.300;2024-03-06T08:50:33;97495.03;;;10.62;100.00
49947;BME280;35839;48.662;13.300;2024-03-06T08:52:58;97485.75;;;11.21;100.00
49947;BME280;35839;48.662;13.300;2024-03-06T08:55:24;97489.59;;;10.73;100.00
49947;BME280;35839;48.662;13.300;2024-03-06T08:57:49;97510.78;;;11.15;100.00
49947;BME280;35839;48.662;13.300;2024-03-06T09:00:15;97502.78;;;11.17;100.00
49947;BME280;35839;48.662;13.300;2024-03-06T09:02:45;97502.31;;;11.04;100.00
49947;BME280;35839;48.662;13.300;2024-03-06T09:05:11;97510.91;;;11.50;100.00
49947;BME280;35839;48.662;13.300;2024-03-06T09:07:38;97502.28;;;11.39;100.00
49947;BME280;35839;48.662;13.300;2024-03-06T09:10:08;97509.66;;;11.18;100.00
49947;BME280;35839;48.662;13.300;2024-03-06T09:12:35;97507.00;;;11.80;100.00
49947;BME280;35839;48.662;13.300;2024-03-06T09:15:01;97506.91;;;11.64;100.00
49947;BME280;35839;48.662;13.300;2024-03-06T09:17:27;97498.47;;;11.78;100.00
49947;BME280;35839;48.662;13.300;2024-03-06T09:19:53;97500.94;;;11.79;100.00
49947;BME280;35839;48.662;13.300;2024-03-06T09:22:19;97502.66;;;11.45;100.00
49947;BME280;35839;48.662;13.300;2024-03-06T09:24:44;97500.94;;;11.79;100.00
49947;BME280;35839;48.662;13.300;2024-03-06T09:27:09;97505.00;;;12.00;100.00
49947;BME280;35839;48.662;13.300;2024-03-06T09:29:35;97501.56;;;11.99;100.00
49947;BME280;35839;48.662;13.300;2024-03-06T09:32:01;97498.78;;;11.31;100.00
49947;BME280;35839;48.662;13.300;2024-03-06T09:34:26;97504.75;;;11.23;100.00
49947;BME280;35839;48.662;13.300;2024-03-06T09:36:51;97499.69;;;11.66;100.00
49947;BME280;35839;48.662;13.300;2024-03-06T09:39:18;97506.47;;;12.29;100.00
49947;BME280;35839;48.662;13.300;2024-03-06T09:41:49;97508.03;;;12.13;100.00
49947;BME280;35839;48.662;13.300;2024-03-06T09:44:16;97504.31;;;12.24;100.00
49947;BME280;35839;48.662;13.300;2024-03-06T09:46:46;97513.22;;;12.39;100.00
49947;BME280;35839;48.662;13.300;2024-03-06T09:49:12;97507.88;;;12.65;100.00
49947;BME280;35839;48.662;13.300;2024-03-06T09:51:42;97511.34;;;12.23;100.00
49947;BME280;35839;48.662;13.300;2024-03-06T09:54:11;97508.72;;;12.23;100.00
49947;BME280;35839;48.662;13.300;2024-03-06T09:56:38;97508.44;;;12.35;100.00
49947;BME280;35839;48.662;13.300;2024-03-06T09:59:04;97503.84;;;11.94;100.00
49947;BME280;35839;48.662;13.300;2024-03-06T10:01:31;97510.44;;;11.80;100.00
49947;BME280;35839;48.662;13.300;2024-03-06T10:03:56;97507.28;;;12.29;100.00
49947;BME280;35839;48.662;13.300;2024-03-06T10:06:22;97516.03;;;11.86;100.00
49947;BME280;35839;48.662;13.300;2024-03-06T10:08:48;97515.56;;;11.38;100.00
49947;BME280;35839;48.662;13.300;2024-03-06T10:11:15;97511.94;;;11.83;100.00
49947;BME280;35839;48.662;13.300;2024-03-06T10:13:42;97512.88;;;12.34;100.00
49947;BME280;35839;48.662;13.300;2024-03-06T10:16:07;97511.31;;;12.58;100.00
49947;BME280;35839;48.662;13.300;2024-03-06T10:18:35;97515.34;;;12.36;100.00
49947;BME280;35839;48.662;13.300;2024-03-06T10:21:00;97518.25;;;12.25;100.00
49947;BME280;35839;48.662;13.300;2024-03-06T10:23:26;97513.66;;;12.77;98.99
49947;BME280;35839;48.662;13.300;2024-03-06T10:25:54;97510.94;;;12.44;100.00
49947;BME280;35839;48.662;13.300;2024-03-06T10:28:21;97512.50;;;12.72;100.00
49947;BME280;35839;48.662;13.300;2024-03-06T10:30:48;97511.75;;;12.96;95.83
49947;BME280;35839;48.662;13.300;2024-03-06T10:33:16;97512.41;;;12.98;100.00
49947;BME280;35839;48.662;13.300;2024-03-06T10:35:44;97517.72;;;12.47;100.00
49947;BME280;35839;48.662;13.300;2024-03-06T10:38:12;97523.38;;;11.56;100.00
49947;BME280;35839;48.662;13.300;2024-03-06T10:40:40;97520.34;;;11.87;99.19
49947;BME280;35839;48.662;13.300;2024-03-06T10:43:06;97509.81;;;11.16;99.33
49947;BME280;35839;48.662;13.300;2024-03-06T10:48:09;97521.44;;;11.58;100.00
49947;BME280;35839;48.662;13.300;2024-03-06T10:50:39;97524.69;;;11.78;100.00
49947;BME280;35839;48.662;13.300;2024-03-06T10:53:12;97524.72;;;12.04;97.10
49947;BME280;35839;48.662;13.300;2024-03-06T10:55:38;97524.69;;;11.96;92.85
49947;BME280;35839;48.662;13.300;2024-03-06T10:58:08;97532.59;;;11.60;98.03
49947;BME280;35839;48.662;13.300;2024-03-06T11:00:41;97529.94;;;11.96;93.74
49947;BME280;35839;48.662;13.300;2024-03-06T11:03:08;97532.09;;;11.82;100.00
49947;BME280;35839;48.662;13.300;2024-03-06T11:05:44;97529.63;;;11.81;92.12
49947;BME280;35839;48.662;13.300;2024-03-06T11:08:13;97536.38;;;12.10;93.43
49947;BME280;35839;48.662;13.300;2024-03-06T11:10:40;97525.50;;;11.52;90.51
49947;BME280;35839;48.662;13.300;2024-03-06T11:13:25;97520.72;;;11.48;95.18
49947;BME280;35839;48.662;13.300;2024-03-06T11:15:57;97535.28;;;11.68;94.09
49947;BME280;35839;48.662;13.300;2024-03-06T11:23:32;97537.53;;;11.19;94.98
49947;BME280;35839;48.662;13.300;2024-03-06T11:26:04;97532.94;;;11.65;96.64
49947;BME280;35839;48.662;13.300;2024-03-06T11:28:35;97528.13;;;11.96;91.72
49947;BME280;35839;48.662;13.300;2024-03-06T11:31:10;97528.09;;;12.22;94.78
49947;BME280;35839;48.662;13.300;2024-03-06T11:33:47;97527.94;;;11.98;93.49
49947;BME280;35839;48.662;13.300;2024-03-06T11:38:58;97517.91;;;12.19;90.38
49947;BME280;35839;48.662;13.300;2024-03-06T11:41:33;97501.34;;;12.61;88.34
49947;BME280;35839;48.662;13.300;2024-03-06T11:44:21;97526.25;;;12.57;86.90
49947;BME280;35839;48.662;13.300;2024-03-06T11:49:21;97516.63;;;12.74;81.47
49947;BME280;35839;48.662;13.300;2024-03-06T11:51:47;97518.16;;;13.01;84.91
49947;BME280;35839;48.662;13.300;2024-03-06T11:54:13;97514.84;;;12.91;80.91
49947;BME280;35839;48.662;13.300;2024-03-06T11:56:40;97521.25;;;12.80;81.15
49947;BME280;35839;48.662;13.300;2024-03-06T11:59:05;97518.34;;;12.49;80.19
49947;BME280;35839;48.662;13.300;2024-03-06T12:01:33;97525.19;;;12.34;78.83
49947;BME280;35839;48.662;13.300;2024-03-06T12:03:58;97519.09;;;12.76;82.57
49947;BME280;35839;48.662;13.300;2024-03-06T12:06:24;97517.75;;;12.63;76.73
49947;BME280;35839;48.662;13.300;2024-03-06T12:08:51;97518.09;;;12.77;78.47
49947;BME280;35839;48.662;13.300;2024-03-06T12:11:18;97516.44;;;12.59;83.29
49947;BME280;35839;48.662;13.300;2024-03-06T12:13:45;97513.34;;;12.30;78.24
49947;BME280;35839;48.662;13.300;2024-03-06T12:16:10;97511.81;;;12.53;75.49
49947;BME280;35839;48.662;13.300;2024-03-06T12:18:36;97515.03;;;12.39;78.76
49947;BME280;35839;48.662;13.300;2024-03-06T12:21:02;97517.63;;;11.96;81.36
49947;BME280;35839;48.662;13.300;2024-03-06T12:23:28;97515.34;;;12.01;81.86
49947;BME280;35839;48.662;13.300;2024-03-06T12:26:07;97518.22;;;12.16;83.66
49947;BME280;35839;48.662;13.300;2024-03-06T12:28:39;97520.22;;;12.22;81.86
49947;BME280;35839;48.662;13.300;2024-03-06T12:31:05;97512.66;;;12.62;84.94
49947;BME280;35839;48.662;13.300;2024-03-06T12:33:33;97515.72;;;12.49;76.57
49947;BME280;35839;48.662;13.300;2024-03-06T12:36:06;97510.50;;;12.57;81.81
49947;BME280;35839;48.662;13.300;2024-03-06T12:38:32;97509.50;;;12.50;79.62
49947;BME280;35839;48.662;13.300;2024-03-06T12:40:59;97511.75;;;13.12;74.13
49947;BME280;35839;48.662;13.300;2024-03-06T12:43:25;97514.88;;;13.07;74.20
49947;BME280;35839;48.662;13.300;2024-03-06T12:45:51;97517.47;;;12.91;78.56
49947;BME280;35839;48.662;13.300;2024-03-06T12:48:23;97517.16;;;13.02;73.74
49947;BME280;35839;48.662;13.300;2024-03-06T12:50:49;97514.03;;;12.91;77.15
49947;BME280;35839;48.662;13.300;2024-03-06T12:53:21;97511.22;;;12.84;78.63
49947;BME280;35839;48.662;13.300;2024-03-06T12:55:47;97512.56;;;12.80;77.89
49947;BME280;35839;48.662;13.300;2024-03-06T12:58:13;97515.81;;;12.74;78.44
49947;BME280;35839;48.662;13.300;2024-03-06T13:00:39;97513.31;;;13.47;74.86
49947;BME280;35839;48.662;13.300;2024-03-06T13:03:05;97513.94;;;13.41;73.50
49947;BME280;35839;48.662;13.300;2024-03-06T13:05:31;97516.53;;;13.25;75.88
49947;BME280;35839;48.662;13.300;2024-03-06T13:07:57;97518.91;;;12.77;75.25
49947;BME280;35839;48.662;13.300;2024-03-06T13:10:22;97511.38;;;12.74;73.52
49947;BME280;35839;48.662;13.300;2024-03-06T13:12:48;97511.78;;;12.45;74.24
49947;BME280;35839;48.662;13.300;2024-03-06T13:15:13;97522.34;;;12.61;72.03
49947;BME280;35839;48.662;13.300;2024-03-06T13:17:38;97517.91;;;12.19;71.52
49947;BME280;35839;48.662;13.300;2024-03-06T13:20:06;97521.63;;;12.51;75.04
49947;BME280;35839;48.662;13.300;2024-03-06T13:22:35;97522.13;;;12.47;69.88
49947;BME280;35839;48.662;13.300;2024-03-06T13:25:00;97517.56;;;12.57;68.23
49947;BME280;35839;48.662;13.300;2024-03-06T13:27:26;97510.56;;;12.82;72.50
49947;BME280;35839;48.662;13.300;2024-03-06T13:29:51;97512.56;;;12.88;68.75
49947;BME280;35839;48.662;13.300;2024-03-06T13:32:16;97512.50;;;12.63;69.05
49947;BME280;35839;48.662;13.300;2024-03-06T13:34:42;97519.72;;;12.61;70.92
49947;BME280;35839;48.662;13.300;2024-03-06T13:37:09;97515.88;;;12.98;67.96
49947;BME280;35839;48.662;13.300;2024-03-06T13:39:35;97524.31;;;12.59;68.68
49947;BME280;35839;48.662;13.300;2024-03-06T13:42:01;97519.09;;;12.76;70.32
49947;BME280;35839;48.662;13.300;2024-03-06T13:44:27;97510.63;;;12.05;80.45
49947;BME280;35839;48.662;13.300;2024-03-06T13:46:53;97514.84;;;12.32;81.33
49947;BME280;35839;48.662;13.300;2024-03-06T13:49:38;97518.38;;;12.15;79.33
49947;BME280;35839;48.662;13.300;2024-03-06T13:52:04;97513.56;;;11.58;80.13
49947;BME280;35839;48.662;13.300;2024-03-06T13:54:31;97490.19;;;11.47;80.19
49947;BME280;35839;48.662;13.300;2024-03-06T13:56:56;97516.53;;;11.63;82.57
49947;BME280;35839;48.662;13.300;2024-03-06T13:59:30;97506.16;;;11.53;77.47
49947;BME280;35839;48.662;13.300;2024-03-06T14:01:56;97517.22;;;11.65;75.58
49947;BME280;35839;48.662;13.300;2024-03-06T14:04:21;97523.09;;;11.41;79.70
49947;BME280;35839;48.662;13.300;2024-03-06T14:06:47;97522.34;;;11.49;80.90
49947;BME280;35839;48.662;13.300;2024-03-06T14:09:14;97529.16;;;11.42;79.47
49947;BME280;35839;48.662;13.300;2024-03-06T14:11:39;97529.72;;;11.27;78.18
49947;BME280;35839;48.662;13.300;2024-03-06T14:14:05;97535.22;;;11.42;80.65
49947;BME280;35839;48.662;13.300;2024-03-06T14:16:31;97536.00;;;11.78;78.81
49947;BME280;35839;48.662;13.300;2024-03-06T14:18:56;97528.16;;;11.60;77.41
49947;BME280;35839;48.662;13.300;2024-03-06T14:21:22;97537.25;;;11.30;81.04
49947;BME280;35839;48.662;13.300;2024-03-06T14:23:47;97535.19;;;11.16;78.79
49947;BME280;35839;48.662;13.300;2024-03-06T14:26:12;97535.22;;;11.42;79.72
49947;BME280;35839;48.662;13.300;2024-03-06T14:28:38;97535.19;;;11.16;79.71
49947;BME280;35839;48.662;13.300;2024-03-06T14:31:05;97539.69;;;11.24;81.77
49947;BME280;35839;48.662;13.300;2024-03-06T14:33:30;97531.56;;;11.53;79.26
49947;BME280;35839;48.662;13.300;2024-03-06T14:35:56;97539.63;;;11.77;80.06
49947;BME280;35839;48.662;13.300;2024-03-06T14:38:21;97535.41;;;11.85;79.34
49947;BME280;35839;48.662;13.300;2024-03-06T14:40:47;97549.00;;;12.06;77.81
49947;BME280;35839;48.662;13.300;2024-03-06T14:43:12;97542.28;;;11.42;77.91
49947;BME280;35839;48.662;13.300;2024-03-06T14:45:38;97547.59;;;11.50;75.76
49947;BME280;35839;48.662;13.300;2024-03-06T14:48:07;97552.09;;;11.39;72.97
49947;BME280;35839;48.662;13.300;2024-03-06T14:50:33;97559.91;;;11.31;71.56
49947;BME280;35839;48.662;13.300;2024-03-06T14:52:58;97554.97;;;11.28;75.38
49947;BME280;35839;48.662;13.300;2024-03-06T14:55:24;97554.66;;;11.13;74.31
49947;BME280;35839;48.662;13.300;2024-03-06T14:57:49;97552.25;;;11.20;77.50
49947;BME280;35839;48.662;13.300;2024-03-06T15:00:15;97562.16;;;11.26;75.06
49947;BME280;35839;48.662;13.300;2024-03-06T15:02:43;97562.59;;;11.04;75.89
49947;BME280;35839;48.662;13.300;2024-03-06T15:05:08;97566.47;;;11.00;77.62
49947;BME280;35839;48.662;13.300;2024-03-06T15:07:37;97557.03;;;11.07;74.17
49947;BME280;35839;48.662;13.300;2024-03-06T15:10:07;97573.59;;;11.07;72.94
49947;BME280;35839;48.662;13.300;2024-03-06T15:12:36;97569.47;;;11.05;75.49
49947;BME280;35839;48.662;13.300;2024-03-06T15:15:03;97561.53;;;10.96;73.80
49947;BME280;35839;48.662;13.300;2024-03-06T15:17:31;97559.91;;;11.31;77.27
49947;BME280;35839;48.662;13.300;2024-03-06T15:20:07;97562.88;;;11.01;79.32
49947;BME280;35839;48.662;13.300;2024-03-06T15:22:37;97563.88;;;10.72;79.66
49947;BME280;35839;48.662;13.300;2024-03-06T15:25:10;97569.03;;;10.64;80.05
49947;BME280;35839;48.662;13.300;2024-03-06T15:27:36;97569.34;;;10.79;81.82
49947;BME280;35839;48.662;13.300;2024-03-06T15:30:06;97564.28;;;10.77;77.72
49947;BME280;35839;48.662;13.300;2024-03-06T15:32:33;97573.00;;;10.68;82.66
49947;BME280;35839;48.662;13.300;2024-03-06T15:34:59;97570.78;;;10.73;78.89
49947;BME280;35839;48.662;13.300;2024-03-06T15:37:25;97569.00;;;10.91;79.05
49947;BME280;35839;48.662;13.300;2024-03-06T15:39:54;97570.06;;;10.99;79.30
49947;BME280;35839;48.662;13.300;2024-03-06T15:42:20;97573.44;;;11.09;80.86
49947;BME280;35839;48.662;13.300;2024-03-06T15:44:50;97577.66;;;10.74;81.25
49947;BME280;35839;48.662;13.300;2024-03-06T15:47:19;97577.31;;;10.87;82.43
49947;BME280;35839;48.662;13.300;2024-03-06T15:49:45;97570.03;;;10.53;84.29
49947;BME280;35839;48.662;13.300;2024-03-06T15:52:12;97569.97;;;10.63;79.63
49947;BME280;35839;48.662;13.300;2024-03-06T15:54:38;97577.25;;;10.69;79.84
49947;BME280;35839;48.662;13.300;2024-03-06T15:57:04;97584.22;;;11.06;81.18
49947;BME280;35839;48.662;13.300;2024-03-06T15:59:32;97578.38;;;10.66;80.12
49947;BME280;35839;48.662;13.300;2024-03-06T16:01:58;97579.31;;;10.75;83.12
49947;BME280;35839;48.662;13.300;2024-03-06T16:04:23;97583.50;;;10.86;83.68
49947;BME280;35839;48.662;13.300;2024-03-06T16:06:49;97578.63;;;10.73;80.25
49947;BME280;35839;48.662;13.300;2024-03-06T16:09:15;97577.25;;;10.41;80.50
49947;BME280;35839;48.662;13.300;2024-03-06T16:11:40;97573.38;;;10.73;83.20
49947;BME280;35839;48.662;13.300;2024-03-06T16:14:06;97575.59;;;10.95;83.25
49947;BME280;35839;48.662;13.300;2024-03-06T16:16:32;97576.09;;;10.81;77.96
49947;BME280;35839;48.662;13.300;2024-03-06T16:18:57;97574.53;;;10.88;81.98
49947;BME280;35839;48.662;13.300;2024-03-06T16:21:24;97588.16;;;10.92;80.51
49947;BME280;35839;48.662;13.300;2024-03-06T16:23:49;97586.69;;;10.62;82.70
49947;BME280;35839;48.662;13.300;2024-03-06T16:26:15;97562.22;;;10.43;84.56
49947;BME280;35839;48.662;13.300;2024-03-06T16:28:42;97591.31;;;10.40;84.97
49947;BME280;35839;48.662;13.300;2024-03-06T16:31:07;97595.31;;;10.34;81.57
49947;BME280;35839;48.662;13.300;2024-03-06T16:33:33;97594.84;;;10.59;80.50
49947;BME280;35839;48.662;13.300;2024-03-06T16:35:58;97600.97;;;10.40;85.93
49947;BME280;35839;48.662;13.300;2024-03-06T16:38:24;97600.69;;;10.43;84.21
49947;BME280;35839;48.662;13.300;2024-03-06T16:40:50;97603.59;;;10.30;81.86
49947;BME280;35839;48.662;13.300;2024-03-06T16:43:16;97601.94;;;10.39;77.95
49947;BME280;35839;48.662;13.300;2024-03-06T16:45:41;97605.91;;;10.43;77.55
49947;BME280;35839;48.662;13.300;2024-03-06T16:48:07;97608.41;;;10.44;76.96
49947;BME280;35839;48.662;13.300;2024-03-06T16:50:32;97609.59;;;10.50;76.75
49947;BME280;35839;48.662;13.300;2024-03-06T16:52:58;97601.56;;;10.89;72.33
49947;BME280;35839;48.662;13.300;2024-03-06T16:55:24;97608.25;;;10.73;72.71
49947;BME280;35839;48.662;13.300;2024-03-06T16:57:50;97595.22;;;10.64;73.43
49947;BME280;35839;48.662;13.300;2024-03-06T17:00:16;97614.03;;;10.77;73.17
49947;BME280;35839;48.662;13.300;2024-03-06T17:02:41;97594.88;;;10.39;75.33
49947;BME280;35839;48.662;13.300;2024-03-06T17:05:07;97604.38;;;10.78;72.71
49947;BME280;35839;48.662;13.300;2024-03-06T17:07:33;97610.59;;;10.39;75.49
49947;BME280;35839;48.662;13.300;2024-03-06T17:09:59;97623.34;;;10.62;72.43
49947;BME280;35839;48.662;13.300;2024-03-06T17:12:26;97619.94;;;10.79;73.18
49947;BME280;35839;48.662;13.300;2024-03-06T17:14:51;97619.44;;;10.38;74.21
49947;BME280;35839;48.662;13.300;2024-03-06T17:17:16;97618.53;;;10.57;73.03
49947;BME280;35839;48.662;13.300;2024-03-06T17:19:42;97628.19;;;10.57;74.98
49947;BME280;35839;48.662;13.300;2024-03-06T17:22:07;97632.22;;;10.41;74.29
49947;BME280;35839;48.662;13.300;2024-03-06T17:24:34;97630.44;;;10.42;74.35
49947;BME280;35839;48.662;13.300;2024-03-06T17:26:59;97632.25;;;10.22;74.16
49947;BME280;35839;48.662;13.300;2024-03-06T17:29:24;97635.66;;;10.42;75.59
49947;BME280;35839;48.662;13.300;2024-03-06T17:31:50;97644.00;;;9.98;75.69
49947;BME280;35839;48.662;13.300;2024-03-06T17:34:15;97642.16;;;10.38;74.73
49947;BME280;35839;48.662;13.300;2024-03-06T17:36:40;97644.53;;;10.11;76.13
49947;BME280;35839;48.662;13.300;2024-03-06T17:39:11;97642.03;;;10.20;80.04
49947;BME280;35839;48.662;13.300;2024-03-06T17:41:36;97646.47;;;10.29;77.81
49947;BME280;35839;48.662;13.300;2024-03-06T17:44:02;97649.34;;;10.26;78.12
49947;BME280;35839;48.662;13.300;2024-03-06T17:46:32;97654.63;;;10.63;76.30
49947;BME280;35839;48.662;13.300;2024-03-06T17:48:57;97651.81;;;10.18;78.22
49947;BME280;35839;48.662;13.300;2024-03-06T17:51:30;97654.97;;;10.78;76.13
49947;BME280;35839;48.662;13.300;2024-03-06T17:53:55;97664.53;;;10.60;73.67
49947;BME280;35839;48.662;13.300;2024-03-06T17:56:22;97666.25;;;10.41;75.67
49947;BME280;35839;48.662;13.300;2024-03-06T17:58:47;97661.03;;;10.41;79.25